createdAt,value
2022-12-27T00:02:04.571Z,7.20
2022-12-27T00:04:50.452Z,7.20
2022-12-27T00:07:37.199Z,7.20
2022-12-27T00:10:22.992Z,7.20
2022-12-27T00:13:08.888Z,7.30
2022-12-27T00:15:55.080Z,7.30
2022-12-27T00:18:41.238Z,7.30
2022-12-27T00:21:28.594Z,7.20
2022-12-27T00:24:14.765Z,7.20
2022-12-27T00:27:00.882Z,7.30
2022-12-27T00:29:46.705Z,7.30
2022-12-27T00:32:32.819Z,7.40
2022-12-27T00:35:18.768Z,7.40
2022-12-27T00:38:06.800Z,7.30
2022-12-27T00:40:54.934Z,7.30
2022-12-27T00:43:40.959Z,7.20
2022-12-27T00:46:26.803Z,7.10
2022-12-27T00:49:12.641Z,7.00
2022-12-27T00:51:58.671Z,7.00
2022-12-27T00:54:44.873Z,6.90
2022-12-27T00:57:30.934Z,6.90
2022-12-27T01:00:17.173Z,6.90
2022-12-27T01:03:03.550Z,6.90
2022-12-27T01:05:49.493Z,6.80
2022-12-27T01:08:35.908Z,6.80
2022-12-27T01:11:22.243Z,6.80
2022-12-27T01:14:07.876Z,6.80
2022-12-27T01:16:53.885Z,6.70
2022-12-27T01:19:39.914Z,6.70
2022-12-27T01:22:25.662Z,6.80
2022-12-27T01:25:11.482Z,6.80
2022-12-27T01:27:57.304Z,6.80
2022-12-27T01:30:43.423Z,6.80
2022-12-27T01:33:29.528Z,6.80
2022-12-27T01:36:19.901Z,6.70
2022-12-27T01:39:05.817Z,6.80
2022-12-27T01:42:10.293Z,6.80
2022-12-27T01:44:57.451Z,6.70
2022-12-27T01:47:43.427Z,6.70
2022-12-27T01:50:55.763Z,6.70
2022-12-27T01:53:44.157Z,6.80
2022-12-27T01:56:30.926Z,6.80
2022-12-27T01:59:17.313Z,6.80
2022-12-27T02:02:03.284Z,6.90
2022-12-27T02:04:49.816Z,6.90
2022-12-27T02:07:40.544Z,6.90
2022-12-27T02:10:27.948Z,6.90
2022-12-27T02:13:14.087Z,7.00
2022-12-27T02:15:59.927Z,6.90
2022-12-27T02:18:46.419Z,6.90
2022-12-27T02:21:42.712Z,6.90
2022-12-27T02:24:41.206Z,6.90
2022-12-27T02:27:42.678Z,6.90
2022-12-27T02:30:31.267Z,6.90
2022-12-27T02:33:20.818Z,6.80
2022-12-27T02:36:09.217Z,6.90
2022-12-27T02:38:56.873Z,7.00
2022-12-27T02:42:01.722Z,6.90
2022-12-27T02:45:06.274Z,7.00
2022-12-27T02:48:10.802Z,7.00
2022-12-27T02:51:34.180Z,6.90
2022-12-27T02:54:51.764Z,6.90
2022-12-27T02:57:42.359Z,6.80
2022-12-27T03:00:47.186Z,6.70
2022-12-27T03:03:39.636Z,6.60
2022-12-27T03:06:40.653Z,6.50
2022-12-27T03:10:04.537Z,6.40
2022-12-27T03:13:27.033Z,6.40
2022-12-27T03:16:16.249Z,6.30
2022-12-27T03:19:09.332Z,6.40
2022-12-27T03:22:24.736Z,6.30
2022-12-27T03:25:29.943Z,6.30
2022-12-27T03:28:38.616Z,6.20
2022-12-27T03:31:46.048Z,6.20
2022-12-27T03:34:38.342Z,6.10
2022-12-27T03:37:47.680Z,6.00
2022-12-27T03:40:38.919Z,5.90
2022-12-27T03:43:24.923Z,5.90
2022-12-27T03:46:34.094Z,5.80
2022-12-27T03:49:46.819Z,5.80
2022-12-27T03:52:42.477Z,5.80
2022-12-27T03:55:33.122Z,5.70
2022-12-27T03:58:20.001Z,5.70
2022-12-27T04:01:06.067Z,5.70
2022-12-27T04:03:52.431Z,5.60
2022-12-27T04:06:38.295Z,5.60
2022-12-27T04:09:43.026Z,5.60
2022-12-27T04:12:47.413Z,5.50
2022-12-27T04:15:51.794Z,5.40
2022-12-27T04:18:56.242Z,5.30
2022-12-27T04:22:00.679Z,5.10
2022-12-27T04:25:04.977Z,5.10
2022-12-27T04:28:09.343Z,5.10
2022-12-27T04:31:13.725Z,5.00
2022-12-27T04:34:18.339Z,4.90
2022-12-27T04:37:04.164Z,4.90
2022-12-27T04:40:10.063Z,4.80
2022-12-27T04:43:14.581Z,4.80
2022-12-27T04:46:19.119Z,4.70
2022-12-27T04:49:23.498Z,4.70
2022-12-27T04:52:34.978Z,4.60
2022-12-27T04:55:25.277Z,4.50
2022-12-27T04:58:11.483Z,4.40
2022-12-27T05:01:17.832Z,4.40
2022-12-27T05:04:04.538Z,4.40
2022-12-27T05:06:50.813Z,4.40
2022-12-27T05:09:55.593Z,4.40
2022-12-27T05:12:59.994Z,4.40
2022-12-27T05:15:45.691Z,4.40
2022-12-27T05:18:31.575Z,4.40
2022-12-27T05:21:17.485Z,4.40
2022-12-27T05:24:22.771Z,4.40
2022-12-27T05:27:08.459Z,4.30
2022-12-27T05:29:54.407Z,4.20
2022-12-27T05:32:40.561Z,4.20
2022-12-27T05:35:26.958Z,4.20
2022-12-27T05:38:12.719Z,4.10
2022-12-27T05:41:02.465Z,4.10
2022-12-27T05:43:48.622Z,4.10
2022-12-27T05:46:35.484Z,3.90
2022-12-27T05:49:21.908Z,3.80
2022-12-27T05:52:08.334Z,3.80
2022-12-27T05:54:54.297Z,3.70
2022-12-27T05:57:40.296Z,3.60
2022-12-27T06:00:26.330Z,3.40
2022-12-27T06:03:12.372Z,3.40
2022-12-27T06:06:02.115Z,3.20
2022-12-27T06:08:48.051Z,3.10
2022-12-27T06:11:34.227Z,3.10
2022-12-27T06:14:20.105Z,3.00
2022-12-27T06:17:06.076Z,3.00
2022-12-27T06:19:56.838Z,3.00
2022-12-27T06:22:43.178Z,3.00
2022-12-27T06:25:29.038Z,3.00
2022-12-27T06:28:15.059Z,3.00
2022-12-27T06:31:01.176Z,3.00
2022-12-27T06:33:47.382Z,2.90
2022-12-27T06:36:33.353Z,2.90
2022-12-27T06:39:19.781Z,2.90
2022-12-27T06:42:06.061Z,2.80
2022-12-27T06:44:51.927Z,2.80
2022-12-27T06:47:38.077Z,2.70
2022-12-27T06:50:24.206Z,2.70
2022-12-27T06:53:10.113Z,2.70
2022-12-27T06:55:56.237Z,2.60
2022-12-27T06:58:42.261Z,2.50
2022-12-27T07:01:28.429Z,2.50
2022-12-27T07:04:14.525Z,2.40
2022-12-27T07:07:00.423Z,2.50
2022-12-27T07:09:46.426Z,2.50
2022-12-27T07:12:36.665Z,2.50
2022-12-27T07:15:23.306Z,2.60
2022-12-27T07:18:09.392Z,2.60
2022-12-27T07:20:55.575Z,2.70
2022-12-27T07:23:41.728Z,2.80
2022-12-27T07:26:30.372Z,2.80
2022-12-27T07:29:16.884Z,2.80
2022-12-27T07:32:02.737Z,2.60
2022-12-27T07:34:48.739Z,2.50
2022-12-27T07:37:34.904Z,2.40
2022-12-27T07:40:22.420Z,2.40
2022-12-27T07:43:08.409Z,2.40
2022-12-27T07:45:54.543Z,2.50
2022-12-27T07:48:41.028Z,2.60
2022-12-27T07:51:28.876Z,2.80
2022-12-27T07:54:14.761Z,3.40
2022-12-27T07:57:00.579Z,4.10
2022-12-27T07:59:46.813Z,4.90
2022-12-27T08:02:32.861Z,5.70
2022-12-27T08:05:24.385Z,6.40
2022-12-27T08:08:14.820Z,7.00
2022-12-27T08:11:05.535Z,7.50
2022-12-27T08:13:52.509Z,7.70
2022-12-27T08:16:38.909Z,7.70
2022-12-27T08:19:24.890Z,7.50
2022-12-27T08:22:11.335Z,7.40
2022-12-27T08:24:57.491Z,7.50
2022-12-27T08:27:43.459Z,7.50
2022-12-27T08:30:29.642Z,7.80
2022-12-27T08:33:15.663Z,8.10
2022-12-27T08:36:53.012Z,7.90
2022-12-27T08:39:15.056Z,7.70
2022-12-27T08:42:01.365Z,7.20
2022-12-27T08:44:47.525Z,7.00
2022-12-27T08:47:33.511Z,6.80
2022-12-27T08:50:19.488Z,6.50
2022-12-27T08:53:06.086Z,6.00
2022-12-27T08:55:51.957Z,5.70
2022-12-27T08:58:37.920Z,5.40
2022-12-27T09:01:25.504Z,5.10
2022-12-27T09:04:11.533Z,5.00
2022-12-27T09:06:57.470Z,4.80
2022-12-27T09:09:43.556Z,4.80
2022-12-27T09:12:29.409Z,4.80
2022-12-27T09:15:15.771Z,4.80
2022-12-27T09:18:03.172Z,4.80
2022-12-27T09:20:48.820Z,4.80
2022-12-27T09:23:35.566Z,4.80
2022-12-27T09:26:22.649Z,4.90
2022-12-27T09:29:08.954Z,5.00
2022-12-27T09:31:55.091Z,5.10
2022-12-27T09:34:41.285Z,5.20
2022-12-27T09:37:27.205Z,5.30
2022-12-27T09:40:14.869Z,5.40
2022-12-27T09:43:18.147Z,5.60
2022-12-27T09:46:11.127Z,5.60
2022-12-27T09:48:57.554Z,5.80
2022-12-27T09:51:49.995Z,6.30
2022-12-27T09:55:02.499Z,6.90
2022-12-27T09:57:50.915Z,7.50
2022-12-27T10:00:38.904Z,8.40
2022-12-27T10:03:28.104Z,9.00
2022-12-27T10:06:20.293Z,9.50
2022-12-27T10:09:09.511Z,9.90
2022-12-27T10:12:01.819Z,10.30
2022-12-27T10:15:07.399Z,11.00
2022-12-27T10:18:11.942Z,12.10
2022-12-27T10:21:10.263Z,13.00
2022-12-27T10:24:15.198Z,13.50
2022-12-27T10:27:01.047Z,14.00
2022-12-27T10:29:48.275Z,13.90
2022-12-27T10:32:34.091Z,13.00
2022-12-27T10:35:20.950Z,12.10
2022-12-27T10:38:10.301Z,12.50
2022-12-27T10:41:05.121Z,13.10
2022-12-27T10:43:51.961Z,13.40
2022-12-27T10:46:38.613Z,14.20
2022-12-27T10:49:28.974Z,14.20
2022-12-27T10:52:19.637Z,14.70
2022-12-27T10:55:05.828Z,15.10
2022-12-27T10:57:51.671Z,16.10
2022-12-27T11:00:37.873Z,16.80
2022-12-27T11:03:26.178Z,16.70
2022-12-27T11:06:20.454Z,16.50
2022-12-27T11:09:18.879Z,16.50
2022-12-27T11:12:10.921Z,16.40
2022-12-27T11:15:01.546Z,15.90
2022-12-27T11:17:49.230Z,15.70
2022-12-27T11:20:39.914Z,15.40
2022-12-27T11:23:29.087Z,14.70
2022-12-27T11:26:23.057Z,14.00
2022-12-27T11:29:15.820Z,13.80
2022-12-27T11:32:06.684Z,14.00
2022-12-27T11:34:54.523Z,14.60
2022-12-27T11:37:40.589Z,15.80
2022-12-27T11:40:34.504Z,17.20
2022-12-27T11:43:22.632Z,17.40
2022-12-27T11:46:13.764Z,18.30
2022-12-27T11:49:01.360Z,18.60
2022-12-27T11:52:03.501Z,19.50
2022-12-27T11:54:58.536Z,20.60
2022-12-27T11:58:07.771Z,20.00
2022-12-27T12:01:03.600Z,19.90
2022-12-27T12:04:06.574Z,20.00
2022-12-27T12:06:52.605Z,19.60
2022-12-27T12:09:39.293Z,18.80
2022-12-27T12:12:44.289Z,17.80
2022-12-27T12:15:36.753Z,16.40
2022-12-27T12:18:27.756Z,15.00
2022-12-27T12:21:27.304Z,13.80
2022-12-27T12:24:16.190Z,13.50
2022-12-27T12:27:22.180Z,13.30
2022-12-27T12:30:27.635Z,13.30
2022-12-27T12:33:14.058Z,13.80
2022-12-27T12:36:12.240Z,13.80
2022-12-27T12:38:58.387Z,13.60
2022-12-27T12:42:03.006Z,13.40
2022-12-27T12:44:49.151Z,12.90
2022-12-27T12:47:35.136Z,13.10
2022-12-27T12:50:27.204Z,13.60
2022-12-27T12:53:32.099Z,14.10
2022-12-27T12:56:32.267Z,14.60
2022-12-27T12:59:30.111Z,15.10
2022-12-27T13:02:25.290Z,15.00
2022-12-27T13:05:29.943Z,14.50
2022-12-27T13:08:36.365Z,14.60
2022-12-27T13:11:22.375Z,14.60
2022-12-27T13:14:14.442Z,14.70
2022-12-27T13:17:10.902Z,14.80
2022-12-27T13:20:15.278Z,15.00
2022-12-27T13:23:01.173Z,15.20
2022-12-27T13:26:05.508Z,15.20
2022-12-27T13:28:58.663Z,14.80
2022-12-27T13:31:50.915Z,14.90
2022-12-27T13:34:36.778Z,15.20
2022-12-27T13:37:41.508Z,15.90
2022-12-27T13:40:34.148Z,16.20
2022-12-27T13:43:23.094Z,16.20
2022-12-27T13:46:16.733Z,15.40
2022-12-27T13:49:11.866Z,15.40
2022-12-27T13:52:20.933Z,14.90
2022-12-27T13:55:23.957Z,14.50
2022-12-27T13:58:25.061Z,13.50
2022-12-27T14:01:36.921Z,12.80
2022-12-27T14:04:23.029Z,12.00
2022-12-27T14:07:27.826Z,11.50
2022-12-27T14:10:31.262Z,11.00
2022-12-27T14:13:29.286Z,11.00
2022-12-27T14:16:15.919Z,11.30
2022-12-27T14:19:02.964Z,11.70
2022-12-27T14:22:03.647Z,11.80
2022-12-27T14:24:55.522Z,11.70
2022-12-27T14:27:59.814Z,11.60
2022-12-27T14:30:52.032Z,11.10
2022-12-27T14:33:37.997Z,10.60
2022-12-27T14:36:30.287Z,10.20
2022-12-27T14:39:35.046Z,10.00
2022-12-27T14:42:30.203Z,9.90
2022-12-27T14:45:35.093Z,9.90
2022-12-27T14:48:27.267Z,9.60
2022-12-27T14:51:58.825Z,9.20
2022-12-27T14:54:47.068Z,8.90
2022-12-27T14:57:48.074Z,8.80
2022-12-27T15:01:06.836Z,8.60
2022-12-27T15:04:19.345Z,8.50
2022-12-27T15:07:25.217Z,8.30
2022-12-27T15:10:14.684Z,8.20
2022-12-27T15:13:12.255Z,8.10
2022-12-27T15:15:58.365Z,8.00
2022-12-27T15:18:54.413Z,8.10
2022-12-27T15:21:41.941Z,8.10
2022-12-27T15:24:28.287Z,8.00
2022-12-27T15:27:19.907Z,7.90
2022-12-27T15:30:21.985Z,7.80
2022-12-27T15:33:11.166Z,7.70
2022-12-27T15:36:06.580Z,7.70
2022-12-27T15:38:54.721Z,7.60
2022-12-27T15:42:10.861Z,7.50
2022-12-27T15:45:05.222Z,7.50
2022-12-27T15:47:51.023Z,7.50
2022-12-27T15:50:48.065Z,7.40
2022-12-27T15:53:36.694Z,7.30
2022-12-27T15:56:27.645Z,7.00
2022-12-27T15:59:35.817Z,6.80
2022-12-27T16:02:30.818Z,6.70
2022-12-27T16:05:19.805Z,6.60
2022-12-27T16:08:08.903Z,6.50
2022-12-27T16:10:55.597Z,6.40
2022-12-27T16:13:48.511Z,6.40
2022-12-27T16:16:37.620Z,6.30
2022-12-27T16:19:33.108Z,6.30
2022-12-27T16:22:31.134Z,6.20
2022-12-27T16:25:35.518Z,6.10
2022-12-27T16:28:26.166Z,6.00
2022-12-27T16:31:12.503Z,6.00
2022-12-27T16:34:20.864Z,5.90
2022-12-27T16:37:20.181Z,5.90
2022-12-27T16:40:11.655Z,5.80
2022-12-27T16:42:57.700Z,5.70
2022-12-27T16:45:52.049Z,5.60
2022-12-27T16:48:37.853Z,5.40
2022-12-27T16:51:23.920Z,5.20
2022-12-27T16:54:29.765Z,5.00
2022-12-27T16:57:22.063Z,5.00
2022-12-27T17:00:11.377Z,5.10
2022-12-27T17:03:20.678Z,5.20
2022-12-27T17:06:35.342Z,5.20
2022-12-27T17:09:21.406Z,5.30
2022-12-27T17:12:13.862Z,5.10
2022-12-27T17:15:02.478Z,5.10
2022-12-27T17:17:52.582Z,5.10
2022-12-27T17:20:38.859Z,5.10
2022-12-27T17:23:24.635Z,5.20
2022-12-27T17:26:16.769Z,5.20
2022-12-27T17:29:02.844Z,5.10
2022-12-27T17:31:48.998Z,5.10
2022-12-27T17:34:38.032Z,5.20
2022-12-27T17:37:42.285Z,5.30
2022-12-27T17:40:43.919Z,5.50
2022-12-27T17:43:48.282Z,5.60
2022-12-27T17:47:00.314Z,5.60
2022-12-27T17:49:46.599Z,5.70
2022-12-27T17:52:51.162Z,5.50
2022-12-27T17:55:55.599Z,5.40
2022-12-27T17:58:41.452Z,5.30
2022-12-27T18:01:28.928Z,5.30
2022-12-27T18:04:18.511Z,5.30
2022-12-27T18:07:06.074Z,5.40
2022-12-27T18:09:55.244Z,5.50
2022-12-27T18:12:42.080Z,5.50
2022-12-27T18:15:29.254Z,5.60
2022-12-27T18:18:29.211Z,5.60
2022-12-27T18:21:25.196Z,5.60
2022-12-27T18:24:23.454Z,5.60
2022-12-27T18:27:17.375Z,5.60
2022-12-27T18:30:03.527Z,5.60
2022-12-27T18:32:49.441Z,5.50
2022-12-27T18:35:35.305Z,5.40
2022-12-27T18:38:34.436Z,5.30
2022-12-27T18:41:21.437Z,5.20
2022-12-27T18:44:12.380Z,5.10
2022-12-27T18:47:00.228Z,5.00
2022-12-27T18:49:46.156Z,5.10
2022-12-27T18:52:34.725Z,5.10
2022-12-27T18:55:23.644Z,5.20
2022-12-27T18:58:20.171Z,5.10
2022-12-27T19:01:19.121Z,5.10
2022-12-27T19:04:14.456Z,5.10
2022-12-27T19:07:15.738Z,5.10
2022-12-27T19:10:02.175Z,5.20
2022-12-27T19:12:48.132Z,5.20
2022-12-27T19:15:40.144Z,5.30
2022-12-27T19:18:37.024Z,5.40
2022-12-27T19:21:33.800Z,5.30
2022-12-27T19:24:29.361Z,5.40
2022-12-27T19:27:21.929Z,5.40
2022-12-27T19:30:27.851Z,5.40
2022-12-27T19:33:13.725Z,5.30
2022-12-27T19:36:00.401Z,5.20
2022-12-27T19:38:48.143Z,5.20
2022-12-27T19:41:34.821Z,5.00
2022-12-27T19:44:21.119Z,5.00
2022-12-27T19:47:09.202Z,4.90
2022-12-27T19:49:55.170Z,4.80
2022-12-27T19:52:41.310Z,4.70
2022-12-27T19:55:27.803Z,4.70
2022-12-27T19:58:20.633Z,4.70
2022-12-27T20:01:06.972Z,4.70
2022-12-27T20:03:53.244Z,4.80
2022-12-27T20:06:39.563Z,4.90
2022-12-27T20:09:26.349Z,4.90
2022-12-27T20:12:12.482Z,4.90
2022-12-27T20:14:58.444Z,4.80
2022-12-27T20:17:45.204Z,4.80
2022-12-27T20:20:31.716Z,4.70
2022-12-27T20:23:18.323Z,4.70
2022-12-27T20:26:04.280Z,4.60
2022-12-27T20:28:50.835Z,4.60
2022-12-27T20:31:44.133Z,4.60
2022-12-27T20:34:30.938Z,4.60
2022-12-27T20:37:22.632Z,4.50
2022-12-27T20:40:11.271Z,4.50
2022-12-27T20:42:57.222Z,4.40
2022-12-27T20:45:43.223Z,4.40
2022-12-27T20:48:29.699Z,4.30
2022-12-27T20:51:17.011Z,4.20
2022-12-27T20:54:02.941Z,4.20
2022-12-27T20:56:48.779Z,4.00
2022-12-27T20:59:34.793Z,3.90
2022-12-27T21:02:21.058Z,3.80
2022-12-27T21:05:07.941Z,3.80
2022-12-27T21:07:53.673Z,3.80
2022-12-27T21:10:39.618Z,3.80
2022-12-27T21:13:25.710Z,3.70
2022-12-27T21:16:12.774Z,3.60
2022-12-27T21:18:58.803Z,3.40
2022-12-27T21:21:44.965Z,3.40
2022-12-27T21:24:30.875Z,3.40
2022-12-27T21:27:16.995Z,3.40
2022-12-27T21:30:03.945Z,3.50
2022-12-27T21:32:49.907Z,3.40
2022-12-27T21:35:36.050Z,3.40
2022-12-27T21:38:21.966Z,3.30
2022-12-27T21:41:10.810Z,3.30
2022-12-27T21:43:56.450Z,3.20
2022-12-27T21:46:42.722Z,3.30
2022-12-27T21:49:28.360Z,3.20
2022-12-27T21:52:14.498Z,3.30
2022-12-27T21:55:00.521Z,3.10
2022-12-27T21:57:46.963Z,3.10
2022-12-27T22:00:33.005Z,3.00
2022-12-27T22:03:19.040Z,3.10
2022-12-27T22:06:12.098Z,3.10
2022-12-27T22:08:59.036Z,3.00
2022-12-27T22:11:45.003Z,3.00
2022-12-27T22:14:36.646Z,2.90
2022-12-27T22:17:22.780Z,2.90
2022-12-27T22:20:09.881Z,3.00
2022-12-27T22:22:55.767Z,2.90
2022-12-27T22:25:42.074Z,2.80
2022-12-27T22:28:28.442Z,2.80
2022-12-27T22:31:15.908Z,2.80
2022-12-27T22:34:03.019Z,2.80
2022-12-27T22:36:52.484Z,2.90
2022-12-27T22:39:38.252Z,2.90
2022-12-27T22:42:24.266Z,3.00
2022-12-27T22:45:10.879Z,2.90
2022-12-27T22:47:57.201Z,2.90
2022-12-27T22:50:43.303Z,2.80
2022-12-27T22:53:29.277Z,2.70
2022-12-27T22:56:19.934Z,2.70
2022-12-27T22:59:07.029Z,2.70
2022-12-27T23:01:53.016Z,2.70
2022-12-27T23:04:38.989Z,2.70
2022-12-27T23:08:06.057Z,2.60
2022-12-27T23:10:31.020Z,2.60
2022-12-27T23:13:17.250Z,2.60
2022-12-27T23:16:03.617Z,2.50
2022-12-27T23:18:49.520Z,2.50
2022-12-27T23:21:35.492Z,2.60
2022-12-27T23:24:21.575Z,2.60
2022-12-27T23:27:07.652Z,2.60
2022-12-27T23:29:55.128Z,2.60
2022-12-27T23:32:40.997Z,2.50
2022-12-27T23:35:26.890Z,2.50
2022-12-27T23:38:12.997Z,2.50
2022-12-27T23:41:00.192Z,2.40
2022-12-27T23:43:55.406Z,2.40
2022-12-27T23:46:42.225Z,2.40
2022-12-27T23:49:28.037Z,2.40
2022-12-27T23:52:14.030Z,2.40
2022-12-27T23:55:00.013Z,2.30
2022-12-27T23:57:46.101Z,2.20
